Time;durP1;ratioP1;P1;durP2;ratioP2;P2;SDS_P1;SDS_P2;PMS_P1;PMS_P2;Temp;Humidity;BMP_temperature;BMP_pressure;BME280_temperature;BME280_humidity;BME280_pressure;Samples;Min_cycle;Max_cycle;Signal;HPM_P1;HPM_P2
2024/02/29 00:00:18;;;;;;;19.37;13.03;;;9.00;99.90;;;;;;4899536;28;20459;-87
2024/02/29 00:02:44;;;;;;;16.03;10.57;;;9.00;99.90;;;;;;4916648;29;20446;-86
2024/02/29 00:05:12;;;;;;;16.43;10.73;;;9.00;99.90;;;;;;4915790;28;20502;-86
2024/02/29 00:07:49;;;;;;;14.83;11.20;;;9.00;99.90;;;;;;4938949;28;20432;-86
2024/02/29 00:10:15;;;;;;;14.27;9.60;;;9.00;99.90;;;;;;4899972;28;20498;-87
2024/02/29 00:12:42;;;;;;;14.30;10.43;;;9.00;99.90;;;;;;4924280;28;20473;-87
2024/02/29 00:15:13;;;;;;;15.30;11.27;;;9.00;99.90;;;;;;4905838;28;20450;-87
2024/02/29 00:17:39;;;;;;;13.53;10.50;;;9.00;99.90;;;;;;4917021;28;21332;-87
2024/02/29 00:20:08;;;;;;;14.27;11.30;;;9.00;99.90;;;;;;4918530;29;20450;-86
2024/02/29 00:22:37;;;;;;;13.53;10.50;;;9.00;99.90;;;;;;4902864;28;20455;-87
2024/02/29 00:25:06;;;;;;;14.70;9.93;;;9.00;99.90;;;;;;4919706;28;20466;-87
2024/02/29 00:27:35;;;;;;;16.17;10.83;;;9.00;99.90;;;;;;4923659;28;20443;-86
2024/02/29 00:30:00;;;;;;;15.60;10.17;;;9.00;99.90;;;;;;4910627;28;21103;-86
2024/02/29 00:32:27;;;;;;;13.63;9.93;;;9.00;99.90;;;;;;4908672;28;20434;-88
2024/02/29 00:34:57;;;;;;;12.40;9.80;;;8.90;99.90;;;;;;4902987;28;20420;-87
2024/02/29 00:37:23;;;;;;;17.67;11.83;;;9.00;99.90;;;;;;4919703;28;20458;-87
2024/02/29 00:39:50;;;;;;;14.60;10.33;;;8.90;99.90;;;;;;4907852;28;20502;-87
2024/02/29 00:42:17;;;;;;;13.90;10.83;;;8.90;99.90;;;;;;4921708;28;20998;-87
2024/02/29 00:44:43;;;;;;;14.37;10.30;;;9.00;99.90;;;;;;4901611;29;20487;-87
2024/02/29 00:47:11;;;;;;;12.67;9.13;;;8.90;99.90;;;;;;4908565;28;20525;-87
2024/02/29 00:49:39;;;;;;;14.90;9.80;;;8.90;99.90;;;;;;4913132;29;20479;-87
2024/02/29 00:52:06;;;;;;;11.80;9.70;;;8.90;99.90;;;;;;4904935;29;20436;-87
2024/02/29 00:54:37;;;;;;;14.70;9.47;;;8.90;99.90;;;;;;4919545;28;20439;-87
2024/02/29 00:57:07;;;;;;;13.73;9.00;;;9.00;99.90;;;;;;4921918;28;20563;-86
2024/02/29 00:59:33;;;;;;;14.03;9.27;;;8.90;99.90;;;;;;4919973;28;20469;-86
2024/02/29 01:02:00;;;;;;;14.73;9.00;;;8.80;99.90;;;;;;4903318;28;20966;-87
2024/02/29 01:04:28;;;;;;;13.00;9.90;;;8.90;99.90;;;;;;4916790;29;20880;-86
2024/02/29 01:06:54;;;;;;;13.57;9.27;;;8.90;99.90;;;;;;4918174;28;20441;-86
2024/02/29 01:09:27;;;;;;;15.20;9.77;;;8.90;99.90;;;;;;4910000;28;20468;-87
2024/02/29 01:11:58;;;;;;;13.30;8.27;;;8.90;99.90;;;;;;4906488;28;20981;-87
2024/02/29 01:14:29;;;;;;;15.20;9.33;;;8.90;99.90;;;;;;4913779;29;20854;-86
2024/02/29 01:16:56;;;;;;;15.00;10.67;;;8.90;99.90;;;;;;4923027;29;21178;-87
2024/02/29 01:19:27;;;;;;;13.40;8.93;;;8.80;99.90;;;;;;4918230;29;20491;-87
2024/02/29 01:21:53;;;;;;;12.93;9.93;;;8.80;99.90;;;;;;4901121;28;20443;-88
2024/02/29 01:24:24;;;;;;;12.77;9.27;;;8.80;99.90;;;;;;4904883;28;20785;-86
2024/02/29 01:26:52;;;;;;;12.17;8.87;;;8.80;99.90;;;;;;4917362;28;20557;-88
2024/02/29 01:29:19;;;;;;;13.23;8.67;;;9.00;99.90;;;;;;4904010;28;20560;-87
2024/02/29 01:31:48;;;;;;;11.73;8.37;;;8.90;99.90;;;;;;4904118;29;20451;-87
2024/02/29 01:34:14;;;;;;;11.37;9.20;;;8.80;99.90;;;;;;4935352;28;20486;-87
2024/02/29 01:36:44;;;;;;;11.67;8.17;;;8.90;99.90;;;;;;4921501;28;20526;-87
2024/02/29 01:39:10;;;;;;;10.97;8.57;;;8.80;99.90;;;;;;4914769;29;20474;-87
2024/02/29 01:41:36;;;;;;;14.53;9.00;;;8.80;99.90;;;;;;4909718;28;20450;-88
2024/02/29 01:44:04;;;;;;;10.67;8.53;;;8.80;99.90;;;;;;4916580;29;20436;-86
2024/02/29 01:46:31;;;;;;;14.10;8.73;;;8.90;99.90;;;;;;4899841;29;20459;-86
2024/02/29 01:49:02;;;;;;;9.50;7.90;;;8.80;99.90;;;;;;4902193;28;20964;-88
2024/02/29 01:51:32;;;;;;;9.07;7.50;;;8.80;99.90;;;;;;4900699;29;20443;-87
2024/02/29 01:54:00;;;;;;;11.40;9.40;;;8.80;99.90;;;;;;4918079;28;20446;-86
2024/02/29 01:56:27;;;;;;;11.87;8.23;;;8.80;99.90;;;;;;4918794;29;20436;-87
2024/02/29 01:58:57;;;;;;;10.10;7.43;;;8.80;99.90;;;;;;4901960;28;20471;-87
2024/02/29 02:01:24;;;;;;;12.17;9.50;;;8.80;99.90;;;;;;4899615;28;20570;-87
2024/02/29 02:03:51;;;;;;;12.07;8.27;;;8.80;99.90;;;;;;4916756;29;20530;-86
2024/02/29 02:06:19;;;;;;;9.23;8.10;;;8.80;99.90;;;;;;4917565;28;20517;-87
2024/02/29 02:08:45;;;;;;;12.10;8.70;;;8.90;99.90;;;;;;4920654;28;20470;-87
2024/02/29 02:11:14;;;;;;;11.83;8.20;;;8.80;99.90;;;;;;4899616;28;20446;-87
2024/02/29 02:13:40;;;;;;;12.10;8.17;;;8.80;99.90;;;;;;4916842;29;20435;-87
2024/02/29 02:16:08;;;;;;;9.63;7.63;;;8.80;99.90;;;;;;4920941;28;20438;-87
2024/02/29 02:18:44;;;;;;;11.23;8.60;;;8.80;99.90;;;;;;4918624;28;20892;-86
2024/02/29 02:21:16;;;;;;;11.77;9.00;;;8.70;99.90;;;;;;4915282;28;20454;-87
2024/02/29 02:23:42;;;;;;;13.67;8.60;;;8.70;99.90;;;;;;4903330;29;20561;-86
2024/02/29 02:26:09;;;;;;;9.83;7.40;;;8.80;99.90;;;;;;4916871;29;20494;-87
2024/02/29 02:28:35;;;;;;;14.60;8.30;;;8.70;99.90;;;;;;4919849;29;20482;-86
2024/02/29 02:31:02;;;;;;;10.97;8.03;;;8.70;99.90;;;;;;4898854;28;20950;-87
2024/02/29 02:33:31;;;;;;;12.13;8.80;;;8.70;99.90;;;;;;4917075;28;20422;-87
2024/02/29 02:35:58;;;;;;;11.10;8.00;;;8.70;99.90;;;;;;4914611;29;20482;-87
2024/02/29 02:38:26;;;;;;;12.30;8.47;;;8.70;99.90;;;;;;4918983;28;20442;-86
2024/02/29 02:40:53;;;;;;;10.27;8.27;;;8.70;99.90;;;;;;4916257;29;20459;-87
2024/02/29 02:43:19;;;;;;;12.83;8.50;;;8.70;99.90;;;;;;4916859;29;20466;-87
2024/02/29 02:45:46;;;;;;;13.37;8.30;;;8.70;99.90;;;;;;4903476;28;20447;-87
2024/02/29 02:48:12;;;;;;;12.13;9.10;;;8.70;99.90;;;;;;4907309;28;20483;-87
2024/02/29 02:50:38;;;;;;;12.10;8.10;;;8.70;99.90;;;;;;4895095;29;20972;-87
2024/02/29 02:53:07;;;;;;;11.63;8.70;;;8.70;99.90;;;;;;4903871;28;20451;-86
2024/02/29 02:55:34;;;;;;;12.30;8.63;;;8.80;99.90;;;;;;4901097;29;21013;-87
2024/02/29 02:58:00;;;;;;;10.97;7.43;;;8.70;99.90;;;;;;4912931;29;20539;-87
2024/02/29 03:00:26;;;;;;;12.20;8.50;;;8.70;99.90;;;;;;4908257;28;20514;-86
2024/02/29 03:02:53;;;;;;;12.30;8.00;;;8.70;99.90;;;;;;4902409;28;20438;-86
2024/02/29 03:05:20;;;;;;;11.63;9.27;;;8.70;99.90;;;;;;4932271;28;20446;-87
2024/02/29 03:07:47;;;;;;;14.87;9.03;;;8.60;99.90;;;;;;4904498;29;20434;-87
2024/02/29 03:10:16;;;;;;;11.00;8.67;;;8.70;99.90;;;;;;4914361;29;20474;-87
2024/02/29 03:12:43;;;;;;;10.10;8.63;;;8.70;99.90;;;;;;4923267;28;20472;-87
2024/02/29 03:15:10;;;;;;;13.50;8.10;;;8.60;99.90;;;;;;4918854;28;20494;-87
2024/02/29 03:17:42;;;;;;;13.43;7.97;;;8.50;99.90;;;;;;4919105;28;20985;-88
2024/02/29 03:20:14;;;;;;;11.70;8.97;;;8.70;99.90;;;;;;4913645;28;20459;-87
2024/02/29 03:22:45;;;;;;;11.40;7.90;;;8.70;99.90;;;;;;4904878;28;20540;-88
2024/02/29 03:25:11;;;;;;;14.00;8.20;;;8.60;99.90;;;;;;4917004;28;21269;-87
2024/02/29 03:27:37;;;;;;;11.70;8.63;;;8.70;99.90;;;;;;4930871;29;20439;-88
2024/02/29 03:30:04;;;;;;;11.93;8.57;;;8.60;99.90;;;;;;4916039;28;20733;-87
2024/02/29 03:32:30;;;;;;;12.50;9.40;;;8.60;99.90;;;;;;4915318;28;21053;-87
2024/02/29 03:34:56;;;;;;;12.90;8.90;;;8.60;99.90;;;;;;4898243;28;20427;-87
2024/02/29 03:37:22;;;;;;;15.10;9.67;;;8.60;99.90;;;;;;4922435;28;20442;-85
2024/02/29 03:39:49;;;;;;;12.23;8.50;;;8.60;99.90;;;;;;4902899;29;20498;-87
2024/02/29 03:42:17;;;;;;;13.33;8.70;;;8.60;99.90;;;;;;4918756;28;20442;-86
2024/02/29 03:44:46;;;;;;;11.17;8.60;;;8.60;99.90;;;;;;4907697;28;20465;-87
2024/02/29 03:47:12;;;;;;;11.73;8.63;;;8.60;99.90;;;;;;4927046;29;21213;-87
2024/02/29 03:49:42;;;;;;;11.20;8.43;;;8.60;99.90;;;;;;4922022;28;20513;-85
2024/02/29 03:52:11;;;;;;;11.73;8.40;;;8.60;99.90;;;;;;4918316;28;20466;-87
2024/02/29 03:54:38;;;;;;;13.37;9.33;;;8.60;99.90;;;;;;4917767;28;20419;-86
2024/02/29 03:57:04;;;;;;;13.63;9.10;;;8.60;99.90;;;;;;4921386;29;20506;-87
2024/02/29 03:59:31;;;;;;;13.00;8.90;;;8.70;99.90;;;;;;4905586;28;20451;-87
2024/02/29 04:01:59;;;;;;;11.37;8.70;;;8.50;99.90;;;;;;4901319;29;20639;-87
2024/02/29 04:04:26;;;;;;;13.03;9.13;;;8.90;99.90;;;;;;4902625;28;20840;-88
2024/02/29 04:06:52;;;;;;;14.50;9.37;;;8.60;99.90;;;;;;4940746;29;20439;-87
2024/02/29 04:09:18;;;;;;;16.10;9.70;;;8.50;99.90;;;;;;4925411;28;20576;-86
2024/02/29 04:11:44;;;;;;;13.17;8.67;;;8.60;99.90;;;;;;4920194;28;20462;-87
2024/02/29 04:14:16;;;;;;;13.80;9.57;;;8.50;99.90;;;;;;4906422;29;21089;-87
2024/02/29 04:16:44;;;;;;;16.40;10.00;;;8.50;99.90;;;;;;4925421;28;20934;-87
2024/02/29 04:19:13;;;;;;;11.87;8.87;;;8.60;99.90;;;;;;4908964;28;20455;-88
2024/02/29 04:21:44;;;;;;;12.63;8.70;;;8.50;99.90;;;;;;4904044;28;20603;-86
2024/02/29 04:24:10;;;;;;;14.00;9.23;;;8.50;99.90;;;;;;4907020;28;20458;-87
2024/02/29 04:26:45;;;;;;;10.70;7.90;;;8.60;99.90;;;;;;4920054;28;21075;-88
2024/02/29 04:29:11;;;;;;;14.37;9.53;;;8.90;99.90;;;;;;4919639;28;20483;-87
2024/02/29 04:31:47;;;;;;;11.20;8.30;;;8.50;99.90;;;;;;4944145;23;20876;-25
2024/02/29 04:34:13;;;;;;;10.60;8.43;;;8.80;99.90;;;;;;4927627;28;20490;-26
2024/02/29 04:36:39;;;;;;;11.30;7.90;;;8.50;99.90;;;;;;4926556;28;20566;-26
2024/02/29 04:39:05;;;;;;;13.00;9.03;;;8.50;99.90;;;;;;4926208;28;20442;-26
2024/02/29 04:41:31;;;;;;;11.47;9.03;;;8.50;99.90;;;;;;4928066;28;20422;-27
2024/02/29 04:43:57;;;;;;;12.73;8.87;;;8.70;99.90;;;;;;4940964;28;20443;-27
2024/02/29 04:46:26;;;;;;;13.20;9.70;;;8.50;99.90;;;;;;4913487;29;20521;-26
2024/02/29 04:48:52;;;;;;;13.43;9.60;;;8.50;99.90;;;;;;4946319;28;20471;-27
2024/02/29 04:51:18;;;;;;;12.43;8.33;;;8.50;99.90;;;;;;4925223;28;20494;-27
2024/02/29 04:53:44;;;;;;;14.83;9.67;;;8.50;99.90;;;;;;4928703;28;20434;-27
2024/02/29 04:56:10;;;;;;;13.70;9.23;;;8.50;99.90;;;;;;4947047;28;20454;-27
2024/02/29 04:58:36;;;;;;;14.07;9.13;;;8.80;99.90;;;;;;4943432;28;20476;-27
2024/02/29 05:01:07;;;;;;;11.93;8.13;;;8.40;99.90;;;;;;4929349;28;21013;-26
2024/02/29 05:03:33;;;;;;;13.33;9.37;;;8.60;99.90;;;;;;4946148;28;20454;-26
2024/02/29 05:05:59;;;;;;;14.10;9.10;;;8.40;99.90;;;;;;4909493;28;20455;-27
2024/02/29 05:08:25;;;;;;;13.40;9.33;;;8.40;99.90;;;;;;4945255;28;21068;-25
2024/02/29 05:10:54;;;;;;;13.93;10.10;;;8.40;99.90;;;;;;4943845;28;20896;-26
2024/02/29 05:13:23;;;;;;;11.20;8.30;;;8.40;99.90;;;;;;4925497;29;20532;-26
2024/02/29 05:15:49;;;;;;;11.50;8.57;;;8.40;99.90;;;;;;4944063;28;21085;-27
2024/02/29 05:18:15;;;;;;;14.30;8.70;;;8.40;99.90;;;;;;4927132;28;20470;-26
2024/02/29 05:20:59;;;;;;;13.07;8.80;;;8.40;99.90;;;;;;4928165;28;21146;-26
2024/02/29 05:23:34;;;;;;;12.33;8.90;;;8.50;99.90;;;;;;4946415;28;20427;-27
2024/02/29 05:26:02;;;;;;;14.60;9.60;;;8.40;99.90;;;;;;4926298;28;20536;-26
2024/02/29 05:28:30;;;;;;;10.73;8.70;;;8.40;99.90;;;;;;4909555;28;20537;-28
2024/02/29 05:30:58;;;;;;;14.30;8.90;;;8.40;99.90;;;;;;4926816;29;20506;-27
2024/02/29 05:33:26;;;;;;;11.20;7.13;;;8.40;99.90;;;;;;4895038;28;20436;-26
2024/02/29 05:35:52;;;;;;;10.60;8.60;;;8.40;99.90;;;;;;4942740;28;20462;-26
2024/02/29 05:38:18;;;;;;;13.20;8.57;;;8.30;99.90;;;;;;4924980;28;20446;-26
2024/02/29 05:40:47;;;;;;;13.53;9.57;;;8.40;99.90;;;;;;4943760;28;20657;-26
2024/02/29 05:43:14;;;;;;;14.33;8.40;;;8.40;99.90;;;;;;4943223;28;20974;-27
2024/02/29 05:45:40;;;;;;;13.13;9.03;;;8.40;99.90;;;;;;4942627;28;20443;-26
2024/02/29 05:48:07;;;;;;;13.30;8.77;;;8.40;99.90;;;;;;4942973;28;20556;-26
2024/02/29 05:50:33;;;;;;;14.63;9.43;;;8.40;99.90;;;;;;4944746;28;20450;-26
2024/02/29 05:52:59;;;;;;;15.57;8.77;;;8.40;99.90;;;;;;4925832;28;20518;-27
2024/02/29 05:55:28;;;;;;;16.03;8.80;;;8.40;99.90;;;;;;4927936;28;20873;-27
2024/02/29 05:57:56;;;;;;;13.07;8.70;;;8.30;99.90;;;;;;4946760;28;20447;-26
2024/02/29 06:00:22;;;;;;;11.40;8.03;;;8.30;99.90;;;;;;4923974;28;20870;-27
2024/02/29 06:02:48;;;;;;;10.13;7.53;;;8.30;99.90;;;;;;4945392;28;20470;-25
2024/02/29 06:05:14;;;;;;;11.63;8.00;;;8.30;99.90;;;;;;4944501;28;20455;-26
2024/02/29 06:07:41;;;;;;;10.73;7.90;;;8.30;99.90;;;;;;4943197;28;20435;-26
2024/02/29 06:10:10;;;;;;;9.70;7.80;;;8.30;99.90;;;;;;4924348;28;21020;-25
2024/02/29 06:12:36;;;;;;;14.53;8.80;;;8.30;99.90;;;;;;4938975;28;20460;-26
2024/02/29 06:15:03;;;;;;;11.50;7.97;;;8.30;99.90;;;;;;4940351;28;20978;-25
2024/02/29 06:17:30;;;;;;;13.57;8.80;;;8.30;99.90;;;;;;4943404;28;21081;-26
2024/02/29 06:19:56;;;;;;;11.37;8.63;;;8.30;99.90;;;;;;4940913;28;20458;-25
2024/02/29 06:22:22;;;;;;;13.43;8.17;;;8.30;99.90;;;;;;4942806;28;20946;-25
2024/02/29 06:24:53;;;;;;;9.80;7.80;;;8.30;99.90;;;;;;4928477;28;20459;-25
2024/02/29 06:27:23;;;;;;;12.00;8.03;;;8.30;99.90;;;;;;4940458;28;20965;-26
2024/02/29 06:29:49;;;;;;;10.13;7.90;;;8.30;99.90;;;;;;4944690;28;20482;-27
2024/02/29 06:32:15;;;;;;;11.30;7.43;;;8.30;99.90;;;;;;4945550;28;20908;-25
2024/02/29 06:34:41;;;;;;;12.10;8.60;;;8.30;99.90;;;;;;4941467;28;20978;-26
2024/02/29 06:37:07;;;;;;;9.83;6.43;;;8.30;99.90;;;;;;4944374;28;20439;-26
2024/02/29 06:39:33;;;;;;;11.10;7.57;;;8.30;99.90;;;;;;4926592;29;20219;-26
2024/02/29 06:42:00;;;;;;;12.47;8.20;;;8.30;99.90;;;;;;4913087;28;20514;-26
2024/02/29 06:44:29;;;;;;;11.80;8.30;;;8.30;99.90;;;;;;4908972;28;20451;-26
2024/02/29 06:46:56;;;;;;;10.33;8.00;;;8.30;99.90;;;;;;4941059;28;20455;-26
2024/02/29 06:49:24;;;;;;;13.87;8.90;;;8.20;99.90;;;;;;4940515;28;20776;-26
2024/02/29 06:51:53;;;;;;;13.20;8.20;;;8.30;99.90;;;;;;4922905;28;20581;-26
2024/02/29 06:54:21;;;;;;;16.00;8.40;;;8.20;99.90;;;;;;4940670;28;20454;-27
2024/02/29 06:56:47;;;;;;;10.47;7.90;;;8.20;99.90;;;;;;4923147;28;20863;-27
2024/02/29 06:59:16;;;;;;;13.30;8.23;;;8.20;99.90;;;;;;4942266;28;20463;-27
2024/02/29 07:01:42;;;;;;;13.00;8.20;;;8.20;99.90;;;;;;4907956;29;20590;-27
2024/02/29 07:04:08;;;;;;;12.17;8.80;;;8.30;99.90;;;;;;4940724;28;20497;-27
2024/02/29 07:06:34;;;;;;;12.43;8.70;;;8.20;99.90;;;;;;4908078;28;20498;-27
2024/02/29 07:09:01;;;;;;;13.00;8.63;;;8.30;99.90;;;;;;4941799;28;20994;-27
2024/02/29 07:11:28;;;;;;;13.40;8.60;;;8.30;99.90;;;;;;4924319;29;20538;-26
2024/02/29 07:13:54;;;;;;;9.37;8.10;;;8.20;99.90;;;;;;4926651;28;20427;-26
2024/02/29 07:16:20;;;;;;;10.40;7.47;;;8.20;99.90;;;;;;4924290;29;20502;-26
2024/02/29 07:18:49;;;;;;;13.83;8.90;;;8.20;99.90;;;;;;4926574;29;20435;-26
2024/02/29 07:21:16;;;;;;;11.33;8.20;;;8.20;99.90;;;;;;4936687;28;20501;-26
2024/02/29 07:23:42;;;;;;;13.20;8.70;;;8.20;99.90;;;;;;4949776;28;20820;-26
2024/02/29 07:26:10;;;;;;;13.93;8.90;;;8.20;99.90;;;;;;4915841;28;20434;-26
2024/02/29 07:28:40;;;;;;;13.97;8.47;;;8.20;99.90;;;;;;4944318;28;20586;-26
2024/02/29 07:31:06;;;;;;;10.87;8.23;;;8.20;99.90;;;;;;4946451;28;20550;-26
2024/02/29 07:33:37;;;;;;;12.90;8.53;;;8.20;99.90;;;;;;4945670;28;20907;-26
2024/02/29 07:36:03;;;;;;;13.97;8.20;;;8.20;99.90;;;;;;4929707;28;20457;-26
2024/02/29 07:38:29;;;;;;;13.27;8.83;;;8.20;99.90;;;;;;4944578;28;20482;-26
2024/02/29 07:40:57;;;;;;;13.77;9.17;;;8.20;99.90;;;;;;4944332;28;20715;-26
2024/02/29 07:43:23;;;;;;;14.23;8.67;;;8.20;99.90;;;;;;4944124;28;21043;-26
2024/02/29 07:45:52;;;;;;;13.43;8.60;;;8.20;99.90;;;;;;4944996;28;20545;-27
2024/02/29 07:48:18;;;;;;;12.97;8.80;;;8.20;99.90;;;;;;4926873;28;21105;-26
2024/02/29 07:50:44;;;;;;;12.10;8.50;;;8.20;99.90;;;;;;4944055;28;20561;-26
2024/02/29 07:53:10;;;;;;;16.13;10.13;;;8.20;99.90;;;;;;4944152;28;20522;-26
2024/02/29 07:55:37;;;;;;;13.60;9.17;;;8.20;99.90;;;;;;4927532;28;20859;-26
2024/02/29 07:58:06;;;;;;;12.50;8.83;;;8.20;99.90;;;;;;4940780;28;20451;-26
2024/02/29 08:00:33;;;;;;;11.70;9.10;;;8.20;99.90;;;;;;4911369;29;20431;-27
2024/02/29 08:03:04;;;;;;;15.00;9.03;;;8.20;99.90;;;;;;4940286;28;20807;-26
2024/02/29 08:05:30;;;;;;;15.00;9.43;;;8.20;99.90;;;;;;4943557;28;20538;-26
2024/02/29 08:07:56;;;;;;;13.13;8.60;;;8.20;99.90;;;;;;4944800;28;20434;-26
2024/02/29 08:10:22;;;;;;;13.07;8.40;;;8.20;99.90;;;;;;4927617;28;20478;-26
2024/02/29 08:12:49;;;;;;;12.93;8.70;;;8.20;99.90;;;;;;4943725;28;20481;-26
2024/02/29 08:15:15;;;;;;;15.37;9.70;;;8.30;99.90;;;;;;4945864;28;20478;-26
2024/02/29 08:17:46;;;;;;;14.60;8.80;;;8.30;99.90;;;;;;4949789;28;21064;-26
2024/02/29 08:20:12;;;;;;;12.03;8.40;;;8.30;99.90;;;;;;4950972;28;20534;-26
2024/02/29 08:22:39;;;;;;;12.13;8.87;;;8.30;99.90;;;;;;4943886;28;20466;-26
2024/02/29 08:25:08;;;;;;;14.40;9.37;;;8.30;99.90;;;;;;4909967;28;20467;-26
2024/02/29 08:27:35;;;;;;;13.80;8.93;;;8.30;99.90;;;;;;4942021;28;20843;-26
2024/02/29 08:30:01;;;;;;;12.93;8.43;;;8.30;99.90;;;;;;4942280;28;21008;-26
2024/02/29 08:32:27;;;;;;;14.70;7.53;;;8.30;99.90;;;;;;4942457;28;20443;-26
2024/02/29 08:34:56;;;;;;;12.10;8.83;;;8.30;99.90;;;;;;4925323;28;20446;-26
2024/02/29 08:37:22;;;;;;;13.10;8.50;;;8.30;99.90;;;;;;4944004;28;20486;-26
2024/02/29 08:39:51;;;;;;;12.27;8.40;;;8.30;99.90;;;;;;4925221;28;20624;-26
2024/02/29 08:42:17;;;;;;;12.10;8.30;;;8.40;99.90;;;;;;4944621;28;20435;-26
2024/02/29 08:44:47;;;;;;;13.90;9.00;;;8.30;99.90;;;;;;4946174;28;20583;-26
2024/02/29 08:47:15;;;;;;;15.50;9.57;;;8.40;99.90;;;;;;4927365;28;20447;-26
2024/02/29 08:49:46;;;;;;;11.93;8.63;;;8.40;99.90;;;;;;4927187;28;20589;-26
2024/02/29 08:52:12;;;;;;;12.13;8.50;;;8.40;99.90;;;;;;4943234;28;20549;-26
2024/02/29 08:54:39;;;;;;;10.73;8.00;;;8.40;99.90;;;;;;4927455;28;20582;-26
2024/02/29 08:57:07;;;;;;;12.50;8.23;;;8.40;99.90;;;;;;4926097;28;20946;-26
2024/02/29 08:59:35;;;;;;;13.70;8.40;;;8.40;99.90;;;;;;4909432;28;20945;-26
2024/02/29 09:02:05;;;;;;;12.37;8.17;;;8.40;99.90;;;;;;4945837;28;20455;-26
2024/02/29 09:04:31;;;;;;;14.63;8.73;;;8.70;99.90;;;;;;4909381;28;20491;-26
2024/02/29 09:06:57;;;;;;;12.73;8.40;;;8.40;99.90;;;;;;4926914;28;21300;-26
2024/02/29 09:09:24;;;;;;;11.27;8.47;;;8.50;99.90;;;;;;4942800;28;20479;-26
2024/02/29 09:11:52;;;;;;;11.50;8.07;;;8.50;99.90;;;;;;4942281;28;20434;-26
2024/02/29 09:14:21;;;;;;;11.63;7.80;;;8.50;99.90;;;;;;4942407;28;20463;-26
2024/02/29 09:16:47;;;;;;;11.70;7.80;;;8.50;99.90;;;;;;4933141;28;20484;-26
2024/02/29 09:19:13;;;;;;;11.10;7.60;;;8.50;99.90;;;;;;4925101;28;20443;-27
2024/02/29 09:21:42;;;;;;;10.70;7.83;;;8.50;99.90;;;;;;4925363;28;20458;-28
2024/02/29 09:24:09;;;;;;;12.10;8.00;;;8.50;99.90;;;;;;4924284;28;20638;-27
2024/02/29 09:26:35;;;;;;;11.93;8.23;;;8.50;99.90;;;;;;4941896;28;20497;-27
2024/02/29 09:29:02;;;;;;;10.50;8.07;;;8.80;99.90;;;;;;4924148;28;20502;-27
2024/02/29 09:31:28;;;;;;;10.00;7.20;;;8.60;99.90;;;;;;4926558;28;20894;-26
2024/02/29 09:33:55;;;;;;;9.07;7.37;;;8.60;99.90;;;;;;4925174;28;20428;-27
2024/02/29 09:36:21;;;;;;;11.97;7.73;;;8.60;99.90;;;;;;4910093;28;20431;-27
2024/02/29 09:38:47;;;;;;;10.57;7.37;;;8.60;99.90;;;;;;4927207;28;20514;-27
2024/02/29 09:41:14;;;;;;;15.70;8.27;;;8.70;99.90;;;;;;4893030;28;20494;-27
2024/02/29 09:43:45;;;;;;;10.53;7.10;;;8.60;99.90;;;;;;4942463;28;20423;-27
2024/02/29 09:46:11;;;;;;;9.23;7.20;;;8.60;99.90;;;;;;4926691;28;20437;-27
2024/02/29 09:48:39;;;;;;;9.23;7.37;;;8.60;99.90;;;;;;4938348;28;20561;-26
2024/02/29 09:51:14;;;;;;;10.80;7.37;;;8.60;99.90;;;;;;4940227;28;20983;-27
2024/02/29 09:53:40;;;;;;;11.80;8.37;;;8.70;99.90;;;;;;4940396;28;20431;-28
2024/02/29 09:56:09;;;;;;;10.43;7.70;;;8.70;99.90;;;;;;4909305;28;20431;-27
2024/02/29 09:58:41;;;;;;;11.57;7.70;;;8.70;99.90;;;;;;4909086;28;20468;-27
2024/02/29 10:01:10;;;;;;;8.50;6.97;;;8.70;99.90;;;;;;4921576;28;20934;-28
2024/02/29 10:03:40;;;;;;;9.60;7.60;;;8.70;99.90;;;;;;4909551;29;20520;-27
2024/02/29 10:06:07;;;;;;;9.40;7.13;;;8.70;99.90;;;;;;4938950;28;21036;-28
2024/02/29 10:08:35;;;;;;;9.33;6.80;;;8.70;99.90;;;;;;4922456;28;20467;-27
2024/02/29 10:11:04;;;;;;;9.73;6.97;;;8.70;99.90;;;;;;4940680;28;20526;-28
2024/02/29 10:13:41;;;;;;;10.57;7.23;;;8.70;99.90;;;;;;4926754;28;20465;-27
2024/02/29 10:16:12;;;;;;;8.93;6.87;;;8.70;99.90;;;;;;4926596;28;20497;-26
2024/02/29 10:18:40;;;;;;;9.60;7.00;;;8.70;99.90;;;;;;4941187;28;20433;-27
2024/02/29 10:21:10;;;;;;;9.50;6.97;;;8.80;99.90;;;;;;4922554;28;20483;-27
2024/02/29 10:23:38;;;;;;;9.17;6.93;;;8.80;99.90;;;;;;4939523;28;20434;-26
2024/02/29 10:26:05;;;;;;;6.90;5.47;;;8.80;99.90;;;;;;4941838;28;21009;-27
2024/02/29 10:28:33;;;;;;;9.40;6.60;;;8.80;99.90;;;;;;4941845;28;20978;-27
2024/02/29 10:31:01;;;;;;;9.13;6.57;;;8.80;99.90;;;;;;4939447;28;20479;-26
2024/02/29 10:33:30;;;;;;;10.90;6.10;;;8.80;99.90;;;;;;4926123;29;20562;-27
2024/02/29 10:36:08;;;;;;;12.40;7.07;;;8.80;99.90;;;;;;4927635;28;20519;-26
2024/02/29 10:38:34;;;;;;;9.93;6.93;;;8.90;99.90;;;;;;4940065;28;20446;-27
2024/02/29 10:41:01;;;;;;;9.90;6.90;;;8.90;99.90;;;;;;4922363;29;21120;-26
2024/02/29 10:43:31;;;;;;;11.57;6.57;;;8.90;99.90;;;;;;4941572;28;20450;-26
2024/02/29 10:46:04;;;;;;;8.30;6.10;;;8.60;99.90;;;;;;4922073;29;20459;-28
2024/02/29 10:48:55;;;;;;;10.07;7.00;;;9.00;99.90;;;;;;4921457;29;20496;-26
2024/02/29 10:51:43;;;;;;;10.73;7.67;;;8.90;99.90;;;;;;4936747;28;20444;-27
2024/02/29 10:54:22;;;;;;;10.37;6.57;;;8.90;99.90;;;;;;4921144;29;21077;-27
2024/02/29 10:56:53;;;;;;;9.40;6.63;;;8.90;99.90;;;;;;4940066;28;20430;-26
2024/02/29 10:59:20;;;;;;;8.47;5.83;;;9.00;99.90;;;;;;4939271;28;20446;-26
2024/02/29 11:01:47;;;;;;;9.17;6.40;;;9.00;99.90;;;;;;4921868;29;20616;-27
2024/02/29 11:04:16;;;;;;;8.60;6.30;;;9.00;99.90;;;;;;4921467;28;20499;-27
2024/02/29 11:06:46;;;;;;;9.47;6.50;;;9.00;99.90;;;;;;4939052;28;20439;-26
2024/02/29 11:09:16;;;;;;;9.03;6.13;;;9.00;99.90;;;;;;4920561;29;20479;-26
2024/02/29 11:11:47;;;;;;;8.37;5.93;;;9.00;99.90;;;;;;4938613;28;20443;-27
2024/02/29 11:14:42;;;;;;;6.70;5.90;;;9.00;99.90;;;;;;4943831;28;20443;-27
2024/02/29 11:17:12;;;;;;;6.67;5.40;;;9.00;99.90;;;;;;4922934;29;20898;-26
2024/02/29 11:19:40;;;;;;;7.33;5.90;;;9.10;99.90;;;;;;4939223;28;21383;-27
2024/02/29 11:22:11;;;;;;;8.33;5.97;;;9.10;99.90;;;;;;4906161;29;20435;-27
2024/02/29 11:24:39;;;;;;;9.00;6.00;;;9.20;99.90;;;;;;4939365;28;20538;-26
2024/02/29 11:27:14;;;;;;;8.10;5.93;;;9.10;99.90;;;;;;4921186;29;20458;-27
2024/02/29 11:29:46;;;;;;;8.37;6.07;;;9.40;99.90;;;;;;4921659;29;20950;-27
2024/02/29 11:32:13;;;;;;;6.63;5.30;;;9.20;99.90;;;;;;4938226;28;20442;-27
2024/02/29 11:34:41;;;;;;;8.23;6.60;;;9.10;99.90;;;;;;4938911;28;20508;-27
2024/02/29 11:37:09;;;;;;;6.40;5.80;;;9.10;99.90;;;;;;4937115;28;20606;-26
2024/02/29 11:39:40;;;;;;;10.60;5.60;;;9.20;99.90;;;;;;4917811;29;20542;-27
2024/02/29 11:42:09;;;;;;;6.57;5.87;;;9.20;99.90;;;;;;4920542;29;20876;-27
2024/02/29 11:44:38;;;;;;;10.63;6.00;;;9.20;99.90;;;;;;4939561;28;20886;-26
2024/02/29 11:47:04;;;;;;;8.23;5.57;;;9.20;99.90;;;;;;4938990;28;20439;-27
2024/02/29 11:49:30;;;;;;;7.23;4.93;;;9.20;99.90;;;;;;4918914;29;20467;-27
2024/02/29 11:51:56;;;;;;;6.90;6.10;;;9.30;99.90;;;;;;4920653;28;20542;-27
2024/02/29 11:54:22;;;;;;;8.13;5.73;;;9.20;99.90;;;;;;4938947;28;20534;-27
2024/02/29 11:56:51;;;;;;;5.53;4.60;;;9.30;99.90;;;;;;4920372;28;20995;-27
2024/02/29 11:59:20;;;;;;;9.30;5.70;;;9.30;99.90;;;;;;4936215;28;20450;-27
2024/02/29 12:01:48;;;;;;;6.77;5.30;;;9.30;99.90;;;;;;4938114;28;20424;-27
2024/02/29 12:04:15;;;;;;;6.87;6.00;;;9.30;99.90;;;;;;4920804;28;20446;-27
2024/02/29 12:06:46;;;;;;;6.80;5.27;;;9.30;99.90;;;;;;4923025;28;20431;-27
2024/02/29 12:09:15;;;;;;;6.00;4.77;;;9.30;99.90;;;;;;4907988;29;20479;-27
2024/02/29 12:11:44;;;;;;;6.97;5.70;;;9.40;99.90;;;;;;4923410;28;20443;-27
2024/02/29 12:14:11;;;;;;;5.50;5.00;;;9.40;99.90;;;;;;4943362;28;20876;-27
2024/02/29 12:16:43;;;;;;;8.53;5.10;;;9.40;99.90;;;;;;4942863;28;20435;-27
2024/02/29 12:19:13;;;;;;;8.70;5.90;;;9.40;99.90;;;;;;4941935;28;21005;-27
2024/02/29 12:21:41;;;;;;;6.17;5.40;;;9.40;99.90;;;;;;4924073;29;20629;-27
2024/02/29 12:24:14;;;;;;;6.33;5.10;;;9.50;99.90;;;;;;4942130;28;21076;-27
2024/02/29 12:26:42;;;;;;;5.77;5.00;;;9.50;99.90;;;;;;4924665;29;20450;-27
2024/02/29 12:29:08;;;;;;;6.27;5.33;;;9.50;99.90;;;;;;4924629;29;20529;-27
2024/02/29 12:31:35;;;;;;;8.53;6.23;;;9.60;99.90;;;;;;4941985;28;20462;-27
2024/02/29 12:34:03;;;;;;;8.27;6.67;;;9.50;99.90;;;;;;4941924;28;20530;-27
2024/02/29 12:36:29;;;;;;;8.03;5.90;;;9.50;99.90;;;;;;4941712;28;20560;-27
2024/02/29 12:39:02;;;;;;;6.03;4.90;;;9.60;99.90;;;;;;4941111;28;20431;-27
2024/02/29 12:41:28;;;;;;;7.97;5.97;;;9.60;99.90;;;;;;4935393;23;20568;-26
2024/02/29 12:43:56;;;;;;;10.10;5.70;;;9.60;99.90;;;;;;4905317;29;20428;-26
2024/02/29 12:46:24;;;;;;;6.70;5.17;;;9.60;99.90;;;;;;4924074;29;20408;-27
2024/02/29 12:48:50;;;;;;;8.13;5.20;;;9.60;99.90;;;;;;4923538;29;20460;-26
2024/02/29 12:51:16;;;;;;;7.60;5.80;;;9.60;99.90;;;;;;4933980;29;20431;-27